Hutchinson, Kansas
Current Conditions -  °F | °C
As of 8:52 AM on Monday 24 Nov 2014 (Local Time) from KHUT Reporting Station
Clear Clear  
Wind Chill: 29°   Ceiling: Unl
Heat Index: 38°   Visibility: 10mi
Dew Point: 20°   Wind: 15mph
Humidity: 48%   Direction: 300°WNW
Pressure: 29.83"   Gusts: NA
Location:  38.06°N, 97.93°W
Report Text: KHUT 241452Z 30013KT 10SM CLR 03/M07 A2983 RMK AO2 SLP101 T00331067 53017
Loading
Personal Weather Stations






























Interactive Weather Map New forecast layout! Learn more

10-Day Weather Forecast

Advertisements
Track Severe Weather on mobile